Time;durP1;ratioP1;P1;durP2;ratioP2;P2;SDS_P1;SDS_P2;PMS_P1;PMS_P2;Temp;Humidity;BMP_temperature;BMP_pressure;BME280_temperature;BME280_humidity;BME280_pressure;Samples;Min_cycle;Max_cycle;Signal;HPM_P1;HPM_P2
2023/05/11 00:01:58;;;;;;;6.25;1.60;;;;;;;;;;4989275;28;20132;-65
2023/05/11 00:05:37;;;;;;;7.97;1.20;;;;;;;;;;4985117;28;20062;-63
2023/05/11 00:09:18;;;;;;;9.10;1.73;;;;;;;;;;4988551;28;20114;-64
2023/05/11 00:12:58;;;;;;;10.85;2.03;;;;;;;;;;4987484;28;20060;-64
2023/05/11 00:16:38;;;;;;;7.82;1.83;;;;;;;;;;4991278;28;20077;-64
2023/05/11 00:20:22;;;;;;;9.45;1.80;;;;;;;;;;4993445;28;20262;-64
2023/05/11 00:24:00;;;;;;;7.35;1.70;;;;;;;;;;4981924;28;20057;-62
2023/05/11 00:27:44;;;;;;;9.32;2.33;;;;;;;;;;4981256;28;20503;-64
2023/05/11 00:31:21;;;;;;;8.55;2.03;;;;;;;;;;4982591;28;20077;-63
2023/05/11 00:35:01;;;;;;;9.43;2.13;;;;;;;;;;4986340;28;20159;-63
2023/05/11 00:38:42;;;;;;;10.60;1.80;;;;;;;;;;4985451;28;20472;-62
2023/05/11 00:42:22;;;;;;;14.35;1.95;;;;;;;;;;4988559;28;20060;-62
2023/05/11 00:46:02;;;;;;;6.28;1.90;;;;;;;;;;4987012;28;20045;-63
2023/05/11 00:49:42;;;;;;;8.18;1.77;;;;;;;;;;4987054;28;20569;-64
2023/05/11 00:53:23;;;;;;;9.23;1.95;;;;;;;;;;4985489;28;20054;-64
2023/05/11 00:57:05;;;;;;;10.85;1.80;;;;;;;;;;4987030;28;20049;-66
2023/05/11 01:00:46;;;;;;;9.50;2.75;;;;;;;;;;4987577;28;20064;-65
2023/05/11 01:04:26;;;;;;;9.30;2.30;;;;;;;;;;4987696;28;20583;-62
2023/05/11 01:08:13;;;;;;;7.68;1.52;;;;;;;;;;4988723;28;20427;-62
2023/05/11 01:12:09;;;;;;;7.07;1.70;;;;;;;;;;4989944;28;20050;-62
2023/05/11 01:15:39;;;;;;;9.98;1.70;;;;;;;;;;4990193;28;20049;-63
2023/05/11 01:18:51;;;;;;;11.27;2.00;;;;;;;;;;4990512;28;20865;-64
2023/05/11 01:22:20;;;;;;;8.75;1.90;;;;;;;;;;4994721;28;21881;-64
2023/05/11 01:25:58;;;;;;;13.18;2.30;;;;;;;;;;4989904;28;20137;-63
2023/05/11 01:29:35;;;;;;;12.07;2.63;;;;;;;;;;4990510;28;20046;-63
2023/05/11 01:33:16;;;;;;;8.52;2.47;;;;;;;;;;4987628;28;20124;-62
2023/05/11 01:36:57;;;;;;;9.27;2.58;;;;;;;;;;4988608;28;20076;-62
2023/05/11 01:40:36;;;;;;;19.17;2.75;;;;;;;;;;4989367;28;20085;-63
2023/05/11 01:44:18;;;;;;;6.97;2.08;;;;;;;;;;4988393;28;20192;-63
2023/05/11 01:47:58;;;;;;;8.88;2.20;;;;;;;;;;4990990;28;20041;-62
2023/05/11 01:51:01;;;;;;;10.75;2.80;;;;;;;;;;4987376;28;20121;-63
2023/05/11 01:53:30;;;;;;;8.55;2.03;;;;;;;;;;4987515;28;21354;-62
2023/05/11 01:55:58;;;;;;;11.02;2.17;;;;;;;;;;4990358;28;20062;-62
2023/05/11 01:58:25;;;;;;;8.80;2.28;;;;;;;;;;4988406;28;21775;-62
2023/05/11 02:00:54;;;;;;;11.10;2.83;;;;;;;;;;4984627;28;20060;-62
2023/05/11 02:03:22;;;;;;;13.98;2.47;;;;;;;;;;4987531;28;20061;-62
2023/05/11 02:05:49;;;;;;;9.00;2.10;;;;;;;;;;4988338;28;20053;-63
2023/05/11 02:08:17;;;;;;;12.95;2.13;;;;;;;;;;4988000;28;20046;-62
2023/05/11 02:10:44;;;;;;;9.45;2.13;;;;;;;;;;4989490;28;20050;-64
2023/05/11 02:13:13;;;;;;;7.57;2.03;;;;;;;;;;4986836;28;20116;-63
2023/05/11 02:15:41;;;;;;;8.65;2.13;;;;;;;;;;4973148;28;20369;-63
2023/05/11 02:18:13;;;;;;;10.35;2.28;;;;;;;;;;4985884;28;21329;-62
2023/05/11 02:20:42;;;;;;;8.35;2.20;;;;;;;;;;4994327;28;20402;-62
2023/05/11 02:23:09;;;;;;;9.82;2.60;;;;;;;;;;5008225;28;20509;-62
2023/05/11 02:25:37;;;;;;;10.85;2.13;;;;;;;;;;5002012;28;20510;-65
2023/05/11 02:28:04;;;;;;;9.30;2.70;;;;;;;;;;4989544;28;20045;-63
2023/05/11 02:30:33;;;;;;;8.32;2.75;;;;;;;;;;4991800;28;20061;-63
2023/05/11 02:33:05;;;;;;;11.88;2.20;;;;;;;;;;4991599;28;20077;-62
2023/05/11 02:35:36;;;;;;;7.38;1.80;;;;;;;;;;4986333;28;20045;-63
2023/05/11 02:38:04;;;;;;;11.60;2.67;;;;;;;;;;4988738;28;20665;-62
2023/05/11 02:40:33;;;;;;;10.50;2.25;;;;;;;;;;4991115;28;20050;-63
2023/05/11 02:43:10;;;;;;;10.32;2.22;;;;;;;;;;4990434;28;20065;-62
2023/05/11 02:45:37;;;;;;;9.07;2.25;;;;;;;;;;4989750;28;20053;-66
2023/05/11 02:48:08;;;;;;;11.63;2.38;;;;;;;;;;4971744;28;20060;-64
2023/05/11 02:50:39;;;;;;;7.20;1.73;;;;;;;;;;4985540;28;20115;-63
2023/05/11 02:53:15;;;;;;;3.90;1.20;;;;;;;;;;4990202;28;20060;-62
2023/05/11 02:55:41;;;;;;;4.13;1.42;;;;;;;;;;4988325;28;20081;-64
2023/05/11 02:58:07;;;;;;;4.50;1.20;;;;;;;;;;4990506;28;20060;-62
2023/05/11 03:00:33;;;;;;;5.40;1.20;;;;;;;;;;4988792;28;20053;-62
2023/05/11 03:03:00;;;;;;;4.65;1.00;;;;;;;;;;4988833;28;20123;-62
2023/05/11 03:05:26;;;;;;;3.08;1.00;;;;;;;;;;4989683;28;20050;-63
2023/05/11 03:07:58;;;;;;;3.88;1.00;;;;;;;;;;4991739;28;20200;-62
2023/05/11 03:10:26;;;;;;;5.38;1.35;;;;;;;;;;4991037;28;20053;-62
2023/05/11 03:12:53;;;;;;;6.20;1.20;;;;;;;;;;4992097;28;20045;-63
2023/05/11 03:15:20;;;;;;;4.75;1.08;;;;;;;;;;4994045;28;20666;-62
2023/05/11 03:17:47;;;;;;;3.92;1.08;;;;;;;;;;4991491;28;20054;-64
2023/05/11 03:20:15;;;;;;;3.00;0.90;;;;;;;;;;4995145;28;20045;-64
2023/05/11 03:22:42;;;;;;;5.05;1.30;;;;;;;;;;4986382;28;20148;-63
2023/05/11 03:25:10;;;;;;;4.22;1.20;;;;;;;;;;4984085;28;20508;-63
2023/05/11 03:27:40;;;;;;;5.53;1.25;;;;;;;;;;5000194;28;20069;-61
2023/05/11 03:30:10;;;;;;;4.15;1.10;;;;;;;;;;4991103;28;20053;-62
2023/05/11 03:32:37;;;;;;;4.18;1.27;;;;;;;;;;4991499;28;20061;-62
2023/05/11 03:35:03;;;;;;;6.65;1.40;;;;;;;;;;4991137;28;20091;-63
2023/05/11 03:37:30;;;;;;;4.03;1.15;;;;;;;;;;4988648;28;20057;-62
2023/05/11 03:39:58;;;;;;;7.63;1.20;;;;;;;;;;4983223;28;20065;-64
2023/05/11 03:42:26;;;;;;;8.40;1.30;;;;;;;;;;4966914;28;20061;-62
2023/05/11 03:44:57;;;;;;;4.25;1.27;;;;;;;;;;4972141;28;20050;-61
2023/05/11 03:47:27;;;;;;;5.32;1.25;;;;;;;;;;4991063;28;20108;-63
2023/05/11 03:49:55;;;;;;;5.82;1.50;;;;;;;;;;4987852;28;20092;-62
2023/05/11 03:52:22;;;;;;;10.68;1.73;;;;;;;;;;4988445;28;20112;-63
2023/05/11 03:54:48;;;;;;;6.40;1.73;;;;;;;;;;4989196;28;20646;-63
2023/05/11 03:57:15;;;;;;;10.00;1.75;;;;;;;;;;4987243;28;20053;-73
2023/05/11 03:59:41;;;;;;;10.15;1.88;;;;;;;;;;4989065;28;20985;-63
2023/05/11 04:02:08;;;;;;;9.77;2.22;;;;;;;;;;4989445;28;20088;-68
2023/05/11 04:04:34;;;;;;;8.40;2.13;;;;;;;;;;4988295;28;20420;-62
2023/05/11 04:07:01;;;;;;;6.28;1.65;;;;;;;;;;4987390;28;20054;-62
2023/05/11 04:09:27;;;;;;;10.70;2.35;;;;;;;;;;4992096;28;20054;-63
2023/05/11 04:11:52;;;;;;;8.98;1.90;;;;;;;;;;4989768;28;20053;-65
2023/05/11 04:14:21;;;;;;;5.38;1.85;;;;;;;;;;4991869;28;20054;-64
2023/05/11 04:16:47;;;;;;;7.85;1.90;;;;;;;;;;4989660;28;20045;-64
2023/05/11 04:19:15;;;;;;;7.32;2.03;;;;;;;;;;4993288;28;20054;-64
2023/05/11 04:21:46;;;;;;;8.43;1.80;;;;;;;;;;4999342;28;20053;-63
2023/05/11 04:24:12;;;;;;;8.63;2.72;;;;;;;;;;4988161;28;20050;-63
2023/05/11 04:26:38;;;;;;;6.00;2.30;;;;;;;;;;4999766;28;20066;-63
2023/05/11 04:29:05;;;;;;;9.70;2.50;;;;;;;;;;4994177;28;20064;-64
2023/05/11 04:31:31;;;;;;;4.68;1.60;;;;;;;;;;4988838;28;20409;-64
2023/05/11 04:33:58;;;;;;;8.35;2.10;;;;;;;;;;4974764;28;20073;-64
2023/05/11 04:36:25;;;;;;;6.47;1.80;;;;;;;;;;4974882;28;20050;-64
2023/05/11 04:38:52;;;;;;;6.07;2.03;;;;;;;;;;4955954;28;20520;-64
2023/05/11 04:41:18;;;;;;;5.20;1.25;;;;;;;;;;4984374;28;20045;-66
2023/05/11 04:43:45;;;;;;;8.05;1.92;;;;;;;;;;4994335;28;20567;-65
2023/05/11 04:46:11;;;;;;;5.60;1.73;;;;;;;;;;4995106;28;20053;-66
2023/05/11 04:48:37;;;;;;;3.92;1.23;;;;;;;;;;4991548;28;20627;-65
2023/05/11 04:51:04;;;;;;;3.58;1.65;;;;;;;;;;4990736;28;21309;-62
2023/05/11 04:53:30;;;;;;;7.90;1.48;;;;;;;;;;4989126;28;20493;-62
2023/05/11 04:55:56;;;;;;;4.55;1.40;;;;;;;;;;4993521;28;20064;-64
2023/05/11 04:58:22;;;;;;;4.85;1.70;;;;;;;;;;4995960;28;20054;-65
2023/05/11 05:00:48;;;;;;;3.35;1.20;;;;;;;;;;4994851;28;20096;-63
2023/05/11 05:03:14;;;;;;;8.55;1.70;;;;;;;;;;4996888;28;20062;-64
2023/05/11 05:05:40;;;;;;;5.68;1.45;;;;;;;;;;4988808;28;20042;-64
2023/05/11 05:08:06;;;;;;;11.68;1.70;;;;;;;;;;4989978;28;20329;-64
2023/05/11 05:10:32;;;;;;;9.48;2.30;;;;;;;;;;4991742;28;20744;-68
2023/05/11 05:12:58;;;;;;;7.60;2.45;;;;;;;;;;4972494;28;20049;-74
2023/05/11 05:15:24;;;;;;;7.90;2.10;;;;;;;;;;4990251;28;20054;-67
2023/05/11 05:17:50;;;;;;;10.35;2.55;;;;;;;;;;4987942;28;20272;-68
2023/05/11 05:20:16;;;;;;;8.63;2.17;;;;;;;;;;4991560;28;20468;-67
2023/05/11 05:22:42;;;;;;;12.38;2.42;;;;;;;;;;4989329;28;20145;-66
2023/05/11 05:25:08;;;;;;;6.38;2.13;;;;;;;;;;4985520;28;20280;-68
2023/05/11 05:27:34;;;;;;;9.63;1.92;;;;;;;;;;4982740;28;20058;-66
2023/05/11 05:30:00;;;;;;;9.32;2.17;;;;;;;;;;4985843;28;20434;-69
2023/05/11 05:32:26;;;;;;;11.32;2.00;;;;;;;;;;4988981;28;20054;-68
2023/05/11 05:34:52;;;;;;;6.07;1.67;;;;;;;;;;4986726;28;20053;-65
2023/05/11 05:37:20;;;;;;;10.05;1.80;;;;;;;;;;4992396;28;20053;-68
2023/05/11 05:39:46;;;;;;;11.27;2.00;;;;;;;;;;4988053;28;20065;-67
2023/05/11 05:42:12;;;;;;;7.32;2.25;;;;;;;;;;4989205;28;20421;-70
2023/05/11 05:44:39;;;;;;;7.38;1.70;;;;;;;;;;4982613;28;20069;-68
2023/05/11 05:47:05;;;;;;;8.23;1.85;;;;;;;;;;4988795;28;21849;-67
2023/05/11 05:49:31;;;;;;;5.90;1.80;;;;;;;;;;4987434;28;20050;-65
2023/05/11 05:51:57;;;;;;;8.35;2.10;;;;;;;;;;4986728;28;20054;-65
2023/05/11 05:54:24;;;;;;;8.80;2.38;;;;;;;;;;4984231;28;20187;-63
2023/05/11 05:57:30;;;;;;;8.07;1.73;;;;;;;;;;4987837;28;20058;-66
2023/05/11 06:01:10;;;;;;;8.38;2.13;;;;;;;;;;4990426;28;20057;-70
2023/05/11 06:04:51;;;;;;;6.07;1.98;;;;;;;;;;5008115;28;20091;-68
2023/05/11 06:08:31;;;;;;;5.25;2.10;;;;;;;;;;5009375;28;20057;-68
2023/05/11 06:12:30;;;;;;;9.88;2.00;;;;;;;;;;5011740;28;20088;-70
2023/05/11 06:16:12;;;;;;;6.53;1.60;;;;;;;;;;5009331;28;20049;-70
2023/05/11 06:19:52;;;;;;;6.03;1.60;;;;;;;;;;5014532;28;20049;-64
2023/05/11 06:23:32;;;;;;;6.88;2.70;;;;;;;;;;5007311;28;20045;-72
2023/05/11 06:27:13;;;;;;;9.35;2.90;;;;;;;;;;5006761;28;20670;-69
2023/05/11 06:30:53;;;;;;;6.00;1.65;;;;;;;;;;5007180;28;20049;-66
2023/05/11 06:34:33;;;;;;;5.95;2.13;;;;;;;;;;5004768;28;20425;-65
2023/05/11 06:38:13;;;;;;;9.18;1.88;;;;;;;;;;5006519;28;20053;-67
2023/05/11 06:41:54;;;;;;;6.45;1.70;;;;;;;;;;5006988;28;20049;-66
2023/05/11 06:45:34;;;;;;;7.32;2.40;;;;;;;;;;5004380;28;20053;-67
2023/05/11 06:49:15;;;;;;;7.00;1.65;;;;;;;;;;5007469;28;20053;-65
2023/05/11 06:52:55;;;;;;;10.38;1.70;;;;;;;;;;5006078;28;20721;-68
2023/05/11 06:56:36;;;;;;;5.10;1.60;;;;;;;;;;5005385;28;20100;-65
2023/05/11 07:00:15;;;;;;;7.93;1.90;;;;;;;;;;5002659;28;20603;-68
2023/05/11 07:03:56;;;;;;;9.13;1.50;;;;;;;;;;5000876;28;20057;-65
2023/05/11 07:07:37;;;;;;;5.13;1.60;;;;;;;;;;4985803;28;20414;-67
2023/05/11 07:11:17;;;;;;;8.32;1.52;;;;;;;;;;4984631;28;20128;-68
2023/05/11 07:14:57;;;;;;;4.40;1.15;;;;;;;;;;4985007;28;20049;-66
2023/05/11 07:18:38;;;;;;;8.18;1.63;;;;;;;;;;4986925;28;21927;-66
2023/05/11 07:22:19;;;;;;;6.60;1.50;;;;;;;;;;4992926;28;20050;-65
2023/05/11 07:26:00;;;;;;;9.38;2.00;;;;;;;;;;4980741;28;20551;-67
2023/05/11 07:29:40;;;;;;;4.43;1.25;;;;;;;;;;4987089;28;20552;-65
2023/05/11 07:33:20;;;;;;;10.75;1.80;;;;;;;;;;4985788;28;20034;-68
2023/05/11 07:37:00;;;;;;;4.60;1.50;;;;;;;;;;4985046;28;20793;-68
2023/05/11 07:40:41;;;;;;;5.43;1.42;;;;;;;;;;4986909;28;20080;-66
2023/05/11 07:44:21;;;;;;;8.93;1.58;;;;;;;;;;4988038;28;20042;-66
2023/05/11 07:48:01;;;;;;;7.18;1.73;;;;;;;;;;4988162;28;20046;-67
2023/05/11 07:51:42;;;;;;;6.90;2.00;;;;;;;;;;4984267;28;20133;-68
2023/05/11 07:55:25;;;;;;;6.07;1.70;;;;;;;;;;4982719;28;20124;-65
2023/05/11 07:59:05;;;;;;;5.05;1.75;;;;;;;;;;4986481;28;20058;-72
2023/05/11 08:02:45;;;;;;;4.40;1.58;;;;;;;;;;4983257;28;20064;-65
2023/05/11 08:06:26;;;;;;;4.38;1.80;;;;;;;;;;5004117;28;20068;-68
2023/05/11 08:10:07;;;;;;;6.18;1.50;;;;;;;;;;5006324;28;20689;-66
2023/05/11 08:13:47;;;;;;;8.55;1.95;;;;;;;;;;5008884;28;20126;-65
2023/05/11 08:17:27;;;;;;;6.07;1.55;;;;;;;;;;5008462;28;20045;-65
2023/05/11 08:21:07;;;;;;;6.60;1.90;;;;;;;;;;5008342;28;20107;-63
2023/05/11 08:24:48;;;;;;;4.88;1.80;;;;;;;;;;5007504;28;20100;-63
2023/05/11 08:28:29;;;;;;;11.25;1.73;;;;;;;;;;5008265;28;20092;-64
2023/05/11 08:32:09;;;;;;;6.22;1.60;;;;;;;;;;5009239;28;20049;-63
2023/05/11 08:35:51;;;;;;;4.03;1.42;;;;;;;;;;5009432;28;20061;-63
2023/05/11 08:39:33;;;;;;;4.50;1.60;;;;;;;;;;5007805;28;20045;-64
2023/05/11 08:43:13;;;;;;;8.98;1.60;;;;;;;;;;5007560;28;20168;-65
2023/05/11 08:46:53;;;;;;;12.15;2.17;;;;;;;;;;5008673;28;20052;-64
2023/05/11 08:50:33;;;;;;;6.40;1.80;;;;;;;;;;5008409;28;20053;-65
2023/05/11 08:54:14;;;;;;;5.43;1.70;;;;;;;;;;5008198;28;20068;-65
2023/05/11 08:57:56;;;;;;;7.50;1.67;;;;;;;;;;5009115;28;20049;-66
2023/05/11 09:01:36;;;;;;;11.18;2.25;;;;;;;;;;5007684;28;20341;-66
2023/05/11 09:05:16;;;;;;;10.20;2.03;;;;;;;;;;5006581;28;20057;-65
2023/05/11 09:08:56;;;;;;;13.20;1.80;;;;;;;;;;5008307;28;20136;-60
2023/05/11 09:12:37;;;;;;;10.73;2.80;;;;;;;;;;5009050;28;20060;-67
2023/05/11 09:16:17;;;;;;;12.07;2.20;;;;;;;;;;5007614;28;20053;-63
2023/05/11 09:20:00;;;;;;;7.75;1.63;;;;;;;;;;5012251;28;20072;-61
2023/05/11 09:23:43;;;;;;;13.38;2.42;;;;;;;;;;5009215;28;20076;-62
2023/05/11 09:27:26;;;;;;;6.20;1.75;;;;;;;;;;5008815;28;20054;-57
2023/05/11 09:31:07;;;;;;;5.80;1.50;;;;;;;;;;5006776;28;20057;-59
2023/05/11 09:34:57;;;;;;;6.50;1.63;;;;;;;;;;5006943;28;20497;-61
2023/05/11 09:38:40;;;;;;;7.22;1.65;;;;;;;;;;5008775;28;20465;-59
2023/05/11 09:42:32;;;;;;;4.20;1.63;;;;;;;;;;5007931;28;20074;-58
2023/05/11 09:46:15;;;;;;;8.73;1.65;;;;;;;;;;5011757;28;20056;-57
2023/05/11 09:49:56;;;;;;;5.80;1.58;;;;;;;;;;5008800;28;20465;-59
2023/05/11 09:53:36;;;;;;;5.20;1.40;;;;;;;;;;5007467;28;20580;-60
2023/05/11 09:57:22;;;;;;;9.50;2.22;;;;;;;;;;5009010;28;20049;-60
2023/05/11 10:01:09;;;;;;;5.38;1.50;;;;;;;;;;5006410;28;20374;-62
2023/05/11 10:04:49;;;;;;;6.97;1.40;;;;;;;;;;5006210;28;20089;-59
2023/05/11 10:08:29;;;;;;;6.90;1.45;;;;;;;;;;5006979;28;20083;-59
2023/05/11 10:12:09;;;;;;;12.23;2.10;;;;;;;;;;5010191;28;20458;-64
2023/05/11 10:15:50;;;;;;;6.18;1.58;;;;;;;;;;5005648;28;20049;-60
2023/05/11 10:19:31;;;;;;;7.30;1.80;;;;;;;;;;5008688;28;20106;-65
2023/05/11 10:23:11;;;;;;;8.88;1.42;;;;;;;;;;5007681;28;20488;-57
2023/05/11 10:26:51;;;;;;;5.82;1.50;;;;;;;;;;5007806;28;20048;-58
2023/05/11 10:30:31;;;;;;;6.18;1.70;;;;;;;;;;5009141;28;20072;-58
2023/05/11 10:34:12;;;;;;;5.18;1.52;;;;;;;;;;5008389;28;20053;-61
2023/05/11 10:37:52;;;;;;;3.88;1.40;;;;;;;;;;5007454;28;20239;-58
2023/05/11 10:41:31;;;;;;;11.52;1.83;;;;;;;;;;5003611;28;20077;-60
2023/05/11 10:45:03;;;;;;;5.72;1.85;;;;;;;;;;5007851;28;20050;-61
2023/05/11 10:49:01;;;;;;;7.63;1.50;;;;;;;;;;5006757;28;20665;-62
2023/05/11 10:52:07;;;;;;;10.90;2.45;;;;;;;;;;5006900;28;20045;-59
2023/05/11 10:55:26;;;;;;;5.60;1.70;;;;;;;;;;5005126;28;20076;-59
2023/05/11 10:59:04;;;;;;;6.45;1.70;;;;;;;;;;5007316;28;20045;-60
2023/05/11 11:02:45;;;;;;;4.95;1.73;;;;;;;;;;5007377;28;20669;-64
2023/05/11 11:06:28;;;;;;;6.82;1.77;;;;;;;;;;5007375;28;20053;-65
2023/05/11 11:09:48;;;;;;;8.23;2.28;;;;;;;;;;5003760;28;20144;-61
2023/05/11 11:13:31;;;;;;;7.72;2.50;;;;;;;;;;5003990;28;20057;-60
2023/05/11 11:17:10;;;;;;;4.30;1.95;;;;;;;;;;5008394;28;20494;-60
2023/05/11 11:21:06;;;;;;;6.60;1.88;;;;;;;;;;5009544;28;20048;-59
2023/05/11 11:24:38;;;;;;;7.68;2.10;;;;;;;;;;5005497;28;20772;-61
2023/05/11 11:27:44;;;;;;;6.20;1.58;;;;;;;;;;5006098;28;20049;-60
2023/05/11 11:31:26;;;;;;;8.10;1.63;;;;;;;;;;5008786;28;20059;-62
2023/05/11 11:34:24;;;;;;;6.78;1.90;;;;;;;;;;5005385;28;20628;-60
2023/05/11 11:38:19;;;;;;;3.67;1.35;;;;;;;;;;5006037;28;20125;-61
2023/05/11 11:42:24;;;;;;;5.55;1.80;;;;;;;;;;5004455;28;20048;-62
2023/05/11 11:46:11;;;;;;;4.90;1.70;;;;;;;;;;5004337;28;20140;-63
2023/05/11 11:49:52;;;;;;;7.30;2.22;;;;;;;;;;5008462;28;20254;-64
2023/05/11 11:53:31;;;;;;;5.65;1.20;;;;;;;;;;5008940;28;20103;-63
2023/05/11 11:56:32;;;;;;;6.20;1.70;;;;;;;;;;5009671;28;20132;-62
2023/05/11 12:00:12;;;;;;;7.57;1.80;;;;;;;;;;5009348;28;20053;-63
2023/05/11 12:03:52;;;;;;;10.93;1.98;;;;;;;;;;5008407;28;20050;-63
2023/05/11 12:07:35;;;;;;;5.50;1.80;;;;;;;;;;5009192;28;20060;-61
2023/05/11 12:11:19;;;;;;;20.42;1.60;;;;;;;;;;5009303;28;20061;-63
2023/05/11 12:15:01;;;;;;;5.15;1.50;;;;;;;;;;5007515;28;20076;-61
2023/05/11 12:18:40;;;;;;;4.75;1.50;;;;;;;;;;5011474;28;20057;-61
2023/05/11 12:22:21;;;;;;;8.07;1.60;;;;;;;;;;5009446;28;20111;-60
2023/05/11 12:26:01;;;;;;;7.97;1.70;;;;;;;;;;5007864;28;20227;-63
2023/05/11 12:29:45;;;;;;;5.57;1.48;;;;;;;;;;5012847;28;20566;-63
2023/05/11 12:33:26;;;;;;;7.47;1.75;;;;;;;;;;5010913;28;20454;-59
2023/05/11 12:37:07;;;;;;;4.78;1.52;;;;;;;;;;5007975;28;20080;-62
2023/05/11 12:40:47;;;;;;;3.83;1.45;;;;;;;;;;5010102;28;20040;-63
2023/05/11 12:44:27;;;;;;;4.43;1.27;;;;;;;;;;5007688;28;20132;-63
2023/05/11 12:48:08;;;;;;;4.53;1.77;;;;;;;;;;5008000;28;20052;-62
2023/05/11 12:51:46;;;;;;;9.30;1.75;;;;;;;;;;5010285;28;20061;-60
2023/05/11 12:55:27;;;;;;;4.95;1.50;;;;;;;;;;5005782;28;20045;-61
2023/05/11 12:59:08;;;;;;;6.95;1.90;;;;;;;;;;5007961;28;20099;-59
2023/05/11 13:02:52;;;;;;;5.30;1.27;;;;;;;;;;5007621;28;20057;-62
2023/05/11 13:06:38;;;;;;;5.63;1.77;;;;;;;;;;5006804;28;20060;-64
2023/05/11 13:10:19;;;;;;;5.85;1.25;;;;;;;;;;5006614;28;20497;-61
2023/05/11 13:14:08;;;;;;;3.92;1.50;;;;;;;;;;5008305;28;20445;-64
2023/05/11 13:17:49;;;;;;;4.93;1.67;;;;;;;;;;5007344;28;20485;-62
2023/05/11 13:21:29;;;;;;;7.53;2.15;;;;;;;;;;5017157;28;20046;-64
2023/05/11 13:25:09;;;;;;;6.28;1.50;;;;;;;;;;5024707;28;20497;-59
2023/05/11 13:28:51;;;;;;;4.60;1.50;;;;;;;;;;5008848;28;20154;-62
2023/05/11 13:32:32;;;;;;;4.45;1.20;;;;;;;;;;5008774;28;20081;-62
2023/05/11 13:36:12;;;;;;;6.00;1.88;;;;;;;;;;5007307;28;20517;-65
2023/05/11 13:39:54;;;;;;;5.72;1.60;;;;;;;;;;5006463;28;20806;-63
2023/05/11 13:43:34;;;;;;;6.22;2.05;;;;;;;;;;5008295;28;20445;-62
2023/05/11 13:47:14;;;;;;;7.93;1.77;;;;;;;;;;5006439;28;20045;-62
2023/05/11 13:50:55;;;;;;;9.60;1.48;;;;;;;;;;5006799;28;20053;-61
2023/05/11 13:54:35;;;;;;;4.75;1.60;;;;;;;;;;5007079;28;20053;-60
2023/05/11 13:58:16;;;;;;;10.90;2.00;;;;;;;;;;5007526;28;20379;-62
2023/05/11 14:01:56;;;;;;;6.28;2.00;;;;;;;;;;5007097;28;20111;-62
2023/05/11 14:05:36;;;;;;;7.65;2.03;;;;;;;;;;5006421;28;22434;-62
2023/05/11 14:09:17;;;;;;;8.68;1.98;;;;;;;;;;5008262;28;20095;-61
2023/05/11 14:12:57;;;;;;;9.20;1.70;;;;;;;;;;5007196;28;20524;-63
2023/05/11 14:16:42;;;;;;;6.78;1.10;;;;;;;;;;5007060;28;20624;-61
2023/05/11 14:20:22;;;;;;;4.70;1.40;;;;;;;;;;5007845;28;20049;-62
2023/05/11 14:24:03;;;;;;;9.85;1.80;;;;;;;;;;5008257;28;20150;-61
2023/05/11 14:27:43;;;;;;;5.55;1.48;;;;;;;;;;5007758;28;20076;-63
2023/05/11 14:31:23;;;;;;;5.45;1.50;;;;;;;;;;5008307;28;20131;-59
2023/05/11 14:35:04;;;;;;;3.72;1.30;;;;;;;;;;5006872;28;20045;-62
2023/05/11 14:38:45;;;;;;;6.53;1.38;;;;;;;;;;5007388;28;20060;-63
2023/05/11 14:42:25;;;;;;;4.95;1.38;;;;;;;;;;5008506;28;20072;-61
2023/05/11 14:46:05;;;;;;;5.38;1.40;;;;;;;;;;5007660;28;20103;-65
2023/05/11 14:49:45;;;;;;;4.03;1.42;;;;;;;;;;5007386;28;20095;-62
2023/05/11 14:53:25;;;;;;;5.05;1.38;;;;;;;;;;5008021;28;20045;-61
2023/05/11 14:57:06;;;;;;;6.50;1.70;;;;;;;;;;5008955;28;20057;-64
2023/05/11 15:00:47;;;;;;;3.90;1.45;;;;;;;;;;5005634;28;20045;-64
2023/05/11 15:04:28;;;;;;;4.80;1.40;;;;;;;;;;5000309;28;20148;-65
2023/05/11 15:08:09;;;;;;;7.35;1.50;;;;;;;;;;4987853;28;20111;-64
2023/05/11 15:11:09;;;;;;;7.20;1.27;;;;;;;;;;4989081;28;20049;-62
2023/05/11 15:13:35;;;;;;;4.70;1.20;;;;;;;;;;4991073;28;20401;-64
2023/05/11 15:16:01;;;;;;;6.07;1.58;;;;;;;;;;4991606;28;20038;-63
2023/05/11 15:18:27;;;;;;;10.05;2.13;;;;;;;;;;4986746;28;20062;-62
2023/05/11 15:20:53;;;;;;;4.80;1.45;;;;;;;;;;4991387;28;20512;-63
2023/05/11 15:23:59;;;;;;;6.18;1.50;;;;;;;;;;4990105;28;20058;-65
2023/05/11 15:27:39;;;;;;;9.55;1.80;;;;;;;;;;4989487;28;20041;-64
2023/05/11 15:31:19;;;;;;;4.80;1.25;;;;;;;;;;4992794;28;20044;-64
2023/05/11 15:35:00;;;;;;;5.28;1.35;;;;;;;;;;4988807;28;20053;-64
2023/05/11 15:38:41;;;;;;;7.18;1.83;;;;;;;;;;4990213;28;20417;-63
2023/05/11 15:42:22;;;;;;;2.65;1.10;;;;;;;;;;4986362;28;20046;-64
2023/05/11 15:46:03;;;;;;;4.72;1.17;;;;;;;;;;4990407;28;20452;-65
2023/05/11 15:49:43;;;;;;;2.70;1.40;;;;;;;;;;4991178;28;20046;-67
2023/05/11 15:53:23;;;;;;;4.75;1.60;;;;;;;;;;4989620;28;20412;-66
2023/05/11 15:57:03;;;;;;;4.75;1.40;;;;;;;;;;4989616;28;20646;-63
2023/05/11 16:00:43;;;;;;;2.80;1.15;;;;;;;;;;4991293;28;20503;-64
2023/05/11 16:04:24;;;;;;;4.82;1.30;;;;;;;;;;4989001;28;20061;-64
2023/05/11 16:08:05;;;;;;;13.05;2.63;;;;;;;;;;4989401;28;20545;-64
2023/05/11 16:11:45;;;;;;;5.20;1.60;;;;;;;;;;4988927;28;20054;-62
2023/05/11 16:15:25;;;;;;;6.68;1.35;;;;;;;;;;5005590;28;20045;-72
2023/05/11 16:19:06;;;;;;;9.80;1.35;;;;;;;;;;5002507;28;20065;-67
2023/05/11 16:22:46;;;;;;;4.40;1.42;;;;;;;;;;5004685;28;20038;-66
2023/05/11 16:26:26;;;;;;;6.15;1.50;;;;;;;;;;4999268;28;20042;-65
2023/05/11 16:30:07;;;;;;;3.75;1.27;;;;;;;;;;4992349;28;20046;-66
2023/05/11 16:33:49;;;;;;;4.85;1.40;;;;;;;;;;4992930;28;20173;-68
2023/05/11 16:37:30;;;;;;;5.45;1.60;;;;;;;;;;4995281;28;20144;-68
2023/05/11 16:41:10;;;;;;;7.93;1.25;;;;;;;;;;4992016;28;20072;-68
2023/05/11 16:44:50;;;;;;;4.55;1.38;;;;;;;;;;4991799;28;20084;-66
2023/05/11 16:48:34;;;;;;;5.07;1.70;;;;;;;;;;4994527;28;20046;-65
2023/05/11 16:52:16;;;;;;;6.35;1.80;;;;;;;;;;4993157;28;20053;-68
2023/05/11 16:55:55;;;;;;;6.70;1.30;;;;;;;;;;4989904;28;20057;-66
2023/05/11 16:58:56;;;;;;;5.07;1.33;;;;;;;;;;4991516;28;20046;-65
2023/05/11 17:02:05;;;;;;;7.30;1.50;;;;;;;;;;4990722;28;20046;-68
2023/05/11 17:05:44;;;;;;;5.68;1.45;;;;;;;;;;5009814;28;20057;-67
2023/05/11 17:09:24;;;;;;;4.65;1.20;;;;;;;;;;5010657;28;20049;-67
2023/05/11 17:13:05;;;;;;;4.80;1.33;;;;;;;;;;5009345;28;20050;-67
2023/05/11 17:16:45;;;;;;;5.78;1.20;;;;;;;;;;5010313;28;20543;-67
2023/05/11 17:20:25;;;;;;;7.95;1.45;;;;;;;;;;5008383;28;20258;-66
2023/05/11 17:24:06;;;;;;;8.10;1.33;;;;;;;;;;5010562;28;20364;-67
2023/05/11 17:27:48;;;;;;;7.22;1.58;;;;;;;;;;5006486;28;20144;-65
2023/05/11 17:31:31;;;;;;;8.77;1.77;;;;;;;;;;5006341;28;20037;-68
2023/05/11 17:35:11;;;;;;;4.47;1.50;;;;;;;;;;5008766;28;20631;-64
2023/05/11 17:38:52;;;;;;;7.45;1.70;;;;;;;;;;5007938;28;20053;-64
2023/05/11 17:42:33;;;;;;;7.03;1.70;;;;;;;;;;5008767;28;20049;-66
2023/05/11 17:46:12;;;;;;;3.63;1.63;;;;;;;;;;5005997;28;20049;-66
2023/05/11 17:49:52;;;;;;;7.88;1.92;;;;;;;;;;5006659;28;20045;-63
2023/05/11 17:53:33;;;;;;;10.23;3.17;;;;;;;;;;5005775;28;20045;-65
2023/05/11 17:57:13;;;;;;;7.40;1.98;;;;;;;;;;5005960;28;20057;-66
2023/05/11 18:00:54;;;;;;;5.82;2.00;;;;;;;;;;5008629;28;20056;-65
2023/05/11 18:04:35;;;;;;;8.07;1.70;;;;;;;;;;4993279;28;20522;-63
2023/05/11 18:08:15;;;;;;;5.20;1.45;;;;;;;;;;4986862;28;20103;-65
2023/05/11 18:11:56;;;;;;;11.63;6.05;;;;;;;;;;4986917;28;20164;-66
2023/05/11 18:15:36;;;;;;;9.63;3.22;;;;;;;;;;4987210;28;20042;-67
2023/05/11 18:19:17;;;;;;;10.65;2.72;;;;;;;;;;4990497;28;20427;-66
2023/05/11 18:22:58;;;;;;;7.47;1.75;;;;;;;;;;4991644;28;20107;-65
2023/05/11 18:26:38;;;;;;;9.23;1.80;;;;;;;;;;4987561;28;20147;-65
2023/05/11 18:30:18;;;;;;;11.82;2.55;;;;;;;;;;4985210;28;20046;-65
2023/05/11 18:33:39;;;;;;;8.10;2.15;;;;;;;;;;4986143;28;20061;-66
2023/05/11 18:36:06;;;;;;;9.25;3.13;;;;;;;;;;4989029;28;20054;-64
2023/05/11 18:39:13;;;;;;;5.88;1.83;;;;;;;;;;4987715;28;20065;-64
2023/05/11 18:42:52;;;;;;;23.48;4.85;;;;;;;;;;4979695;28;20386;-64
2023/05/11 18:46:33;;;;;;;15.80;3.10;;;;;;;;;;4985330;28;20064;-66
2023/05/11 18:50:13;;;;;;;10.75;3.10;;;;;;;;;;4986523;28;20095;-65
2023/05/11 18:53:55;;;;;;;7.35;2.08;;;;;;;;;;4988510;28;20501;-65
2023/05/11 18:57:36;;;;;;;13.40;1.95;;;;;;;;;;4983591;28;20133;-65
2023/05/11 19:01:16;;;;;;;13.82;2.25;;;;;;;;;;4985498;28;20117;-67
2023/05/11 19:04:56;;;;;;;7.90;2.17;;;;;;;;;;4985543;28;20054;-66
2023/05/11 19:08:39;;;;;;;8.02;1.83;;;;;;;;;;4986902;28;20051;-64
2023/05/11 19:12:21;;;;;;;10.15;2.38;;;;;;;;;;4987013;28;20056;-64
2023/05/11 19:16:02;;;;;;;11.07;2.25;;;;;;;;;;4993125;28;20112;-64
2023/05/11 19:19:42;;;;;;;13.52;2.40;;;;;;;;;;4984634;28;20087;-62
2023/05/11 19:23:22;;;;;;;10.15;2.40;;;;;;;;;;4992188;28;20124;-59
2023/05/11 19:27:03;;;;;;;7.95;2.20;;;;;;;;;;4985133;28;20492;-58
2023/05/11 19:30:44;;;;;;;9.82;2.10;;;;;;;;;;4983808;28;20445;-62
2023/05/11 19:34:26;;;;;;;10.82;1.88;;;;;;;;;;4983147;28;20061;-57
2023/05/11 19:38:06;;;;;;;10.00;2.25;;;;;;;;;;4985262;28;20062;-59
2023/05/11 19:41:46;;;;;;;10.30;1.80;;;;;;;;;;4983900;28;20507;-57
2023/05/11 19:45:32;;;;;;;11.30;2.22;;;;;;;;;;4982387;28;20184;-55